This is the latest recevied weather packets stored in our database for station/object GW1495. If no packets are shown the sender has not sent any weather packets the latest 10 day(s).
| Time | Temp. | Humidity | Pressure | Rain* | Wind** | Luminosity | Snow |
|---|---|---|---|---|---|---|---|
| 1777340207 | 17.78° C | 71% | 1020.9 hPa | 0 mm | - | - | - |
| 1777337298 | 18.89° C | 67% | 1020.3 hPa | 0 mm | - | - | - |
| 1777335890 | 19.44° C | 68% | 1019.9 hPa | 0 mm | - | - | - |
| 1777332627 | 22.22° C | 59% | 1019.9 hPa | 0 mm | - | - | - |
| 1777330491 | 24.44° C | 45% | 1019.9 hPa | 0 mm | - | - | - |
| 1777326861 | 25.56° C | 46% | 1019.6 hPa | 0 mm | - | - | - |
| 1777326171 | 25.56° C | 41% | 1019.6 hPa | 0 mm | - | - | - |
| 1777322919 | 28.89° C | 29% | 1019.9 hPa | 0 mm | - | - | - |
| 1777320052 | 27.78° C | 32% | 1020.3 hPa | 0 mm | - | - | - |
| 1777318247 | 28.89° C | 30% | 1020.9 hPa | 0 mm | - | - | - |
| 1777314287 | 27.22° C | 34% | 1022.3 hPa | 0 mm | - | - | - |
| 1777313213 | 27.22° C | 33% | 1022.6 hPa | 0 mm | - | - | - |
| 1777307091 | 23.89° C | 44% | 1024.3 hPa | 0 mm | - | - | - |
| 1777305250 | 22.78° C | 45% | 1024.3 hPa | 0 mm | - | - | - |
| 1777303133 | 20.56° C | 53% | 1025 hPa | 0 mm | - | - | - |
| 1777302731 | 20° C | 52% | 1024.3 hPa | 0 mm | - | - | - |
| 1777301295 | 20° C | 52% | 1024.7 hPa | 0 mm | - | - | - |
| 1777300948 | 19.44° C | 58% | 1024.7 hPa | 0 mm | - | - | - |
| 1777300590 | 18.89° C | 55% | 1024.7 hPa | 0 mm | - | - | - |
| 1777297734 | 16.11° C | 68% | 1025 hPa | 0 mm | - | - | - |
| 1777297359 | 15.56° C | 72% | 1025.3 hPa | 0 mm | - | - | - |
| 1777296286 | 14.44° C | 78% | 1025.3 hPa | 0 mm | - | - | - |
| 1777295563 | 13.33° C | 83% | 1025.3 hPa | 0 mm | - | - | - |
| 1777291238 | 7.78° C | 98% | 1025.7 hPa | 0 mm | - | - | - |
| 1777289802 | 7.78° C | 98% | 1025.7 hPa | 0 mm | - | - | - |
* Rain since midnight (hover to see other rain measurements)
** Current wind speed in m/s (hover to see current wind gust speed)